sensor_id;sensor_type;location;lat;lon;timestamp;temperature;humidity
47162;DHT22;32921;53.256;8.198;2024-02-26T00:01:36;1.70;99.90
47162;DHT22;32921;53.256;8.198;2024-02-26T00:04:02;1.40;99.90
47162;DHT22;32921;53.256;8.198;2024-02-26T00:06:29;1.20;99.90
47162;DHT22;32921;53.256;8.198;2024-02-26T00:08:55;1.20;99.90
47162;DHT22;32921;53.256;8.198;2024-02-26T00:11:20;1.00;99.90
47162;DHT22;32921;53.256;8.198;2024-02-26T00:13:46;1.20;99.90
47162;DHT22;32921;53.256;8.198;2024-02-26T00:16:11;1.20;99.90
47162;DHT22;32921;53.256;8.198;2024-02-26T00:18:37;1.00;99.90
47162;DHT22;32921;53.256;8.198;2024-02-26T00:21:03;1.10;99.90
47162;DHT22;32921;53.256;8.198;2024-02-26T00:23:28;0.90;99.90
47162;DHT22;32921;53.256;8.198;2024-02-26T00:25:54;0.80;99.90
47162;DHT22;32921;53.256;8.198;2024-02-26T00:28:21;1.00;99.90
47162;DHT22;32921;53.256;8.198;2024-02-26T00:30:47;1.00;99.90
47162;DHT22;32921;53.256;8.198;2024-02-26T00:33:14;1.20;99.90
47162;DHT22;32921;53.256;8.198;2024-02-26T00:35:39;1.10;99.90
47162;DHT22;32921;53.256;8.198;2024-02-26T00:38:05;1.10;99.90
47162;DHT22;32921;53.256;8.198;2024-02-26T00:40:31;1.10;99.90
47162;DHT22;32921;53.256;8.198;2024-02-26T00:42:56;1.30;99.90
47162;DHT22;32921;53.256;8.198;2024-02-26T00:45:22;1.50;99.90
47162;DHT22;32921;53.256;8.198;2024-02-26T00:47:48;1.50;99.90
47162;DHT22;32921;53.256;8.198;2024-02-26T00:50:14;1.50;99.90
47162;DHT22;32921;53.256;8.198;2024-02-26T00:52:40;1.50;99.90
47162;DHT22;32921;53.256;8.198;2024-02-26T00:55:06;1.50;99.90
47162;DHT22;32921;53.256;8.198;2024-02-26T00:57:32;1.70;99.90
47162;DHT22;32921;53.256;8.198;2024-02-26T00:59:58;1.70;99.90
47162;DHT22;32921;53.256;8.198;2024-02-26T01:02:24;1.80;99.90
47162;DHT22;32921;53.256;8.198;2024-02-26T01:04:50;1.70;99.90
47162;DHT22;32921;53.256;8.198;2024-02-26T01:07:15;1.60;99.90
47162;DHT22;32921;53.256;8.198;2024-02-26T01:09:42;1.40;99.90
47162;DHT22;32921;53.256;8.198;2024-02-26T01:12:08;1.40;99.90
47162;DHT22;32921;53.256;8.198;2024-02-26T01:14:34;1.40;99.90
47162;DHT22;32921;53.256;8.198;2024-02-26T01:16:59;1.30;99.90
47162;DHT22;32921;53.256;8.198;2024-02-26T01:19:25;1.40;99.90
47162;DHT22;32921;53.256;8.198;2024-02-26T01:21:50;1.50;99.90
47162;DHT22;32921;53.256;8.198;2024-02-26T01:24:16;1.50;99.90
47162;DHT22;32921;53.256;8.198;2024-02-26T01:26:42;1.40;99.90
47162;DHT22;32921;53.256;8.198;2024-02-26T01:29:08;1.40;99.90
47162;DHT22;32921;53.256;8.198;2024-02-26T01:31:34;1.40;99.90
47162;DHT22;32921;53.256;8.198;2024-02-26T01:34:00;1.70;99.90
47162;DHT22;32921;53.256;8.198;2024-02-26T01:36:25;1.60;99.90
47162;DHT22;32921;53.256;8.198;2024-02-26T01:38:51;1.60;99.90
47162;DHT22;32921;53.256;8.198;2024-02-26T01:41:17;1.70;99.90
47162;DHT22;32921;53.256;8.198;2024-02-26T01:43:42;1.60;99.90
47162;DHT22;32921;53.256;8.198;2024-02-26T01:46:13;1.60;99.90
47162;DHT22;32921;53.256;8.198;2024-02-26T01:48:43;1.60;99.90
47162;DHT22;32921;53.256;8.198;2024-02-26T01:51:10;1.60;99.90
47162;DHT22;32921;53.256;8.198;2024-02-26T01:53:37;1.50;99.90
47162;DHT22;32921;53.256;8.198;2024-02-26T01:56:04;1.40;99.90
47162;DHT22;32921;53.256;8.198;2024-02-26T01:58:30;1.50;99.90
47162;DHT22;32921;53.256;8.198;2024-02-26T02:00:57;1.50;99.90
47162;DHT22;32921;53.256;8.198;2024-02-26T02:03:23;1.40;99.90
47162;DHT22;32921;53.256;8.198;2024-02-26T02:05:49;1.60;99.90
47162;DHT22;32921;53.256;8.198;2024-02-26T02:08:14;1.50;99.90
47162;DHT22;32921;53.256;8.198;2024-02-26T02:10:41;1.60;99.90
47162;DHT22;32921;53.256;8.198;2024-02-26T02:13:07;1.40;99.90
47162;DHT22;32921;53.256;8.198;2024-02-26T02:15:33;1.30;99.90
47162;DHT22;32921;53.256;8.198;2024-02-26T02:17:59;1.30;99.90
47162;DHT22;32921;53.256;8.198;2024-02-26T02:20:34;1.40;99.90
47162;DHT22;32921;53.256;8.198;2024-02-26T02:23:00;1.30;99.90
47162;DHT22;32921;53.256;8.198;2024-02-26T02:25:26;1.40;99.90
47162;DHT22;32921;53.256;8.198;2024-02-26T02:27:53;1.50;99.90
47162;DHT22;32921;53.256;8.198;2024-02-26T02:30:21;1.60;99.90
47162;DHT22;32921;53.256;8.198;2024-02-26T02:32:47;1.40;99.90
47162;DHT22;32921;53.256;8.198;2024-02-26T02:35:12;1.40;99.90
47162;DHT22;32921;53.256;8.198;2024-02-26T02:37:38;1.40;99.90
47162;DHT22;32921;53.256;8.198;2024-02-26T02:40:04;1.50;99.90
47162;DHT22;32921;53.256;8.198;2024-02-26T02:42:30;1.40;99.90
47162;DHT22;32921;53.256;8.198;2024-02-26T02:44:56;1.40;99.90
47162;DHT22;32921;53.256;8.198;2024-02-26T02:47:22;1.30;99.90
47162;DHT22;32921;53.256;8.198;2024-02-26T02:49:47;1.40;99.90
47162;DHT22;32921;53.256;8.198;2024-02-26T02:52:13;1.50;99.90
47162;DHT22;32921;53.256;8.198;2024-02-26T02:54:39;1.40;99.90
47162;DHT22;32921;53.256;8.198;2024-02-26T02:57:07;1.40;99.90
47162;DHT22;32921;53.256;8.198;2024-02-26T02:59:33;1.40;99.90
47162;DHT22;32921;53.256;8.198;2024-02-26T03:01:59;1.40;99.90
47162;DHT22;32921;53.256;8.198;2024-02-26T03:04:24;1.40;99.90
47162;DHT22;32921;53.256;8.198;2024-02-26T03:06:50;1.40;99.90
47162;DHT22;32921;53.256;8.198;2024-02-26T03:09:15;1.60;99.90
47162;DHT22;32921;53.256;8.198;2024-02-26T03:11:41;1.60;99.90
47162;DHT22;32921;53.256;8.198;2024-02-26T03:14:07;1.50;99.90
47162;DHT22;32921;53.256;8.198;2024-02-26T03:16:33;1.50;99.90
47162;DHT22;32921;53.256;8.198;2024-02-26T03:18:59;1.40;99.90
47162;DHT22;32921;53.256;8.198;2024-02-26T03:21:25;1.40;99.90
47162;DHT22;32921;53.256;8.198;2024-02-26T03:23:51;1.60;99.90
47162;DHT22;32921;53.256;8.198;2024-02-26T03:26:16;1.60;99.90
47162;DHT22;32921;53.256;8.198;2024-02-26T03:28:42;1.60;99.90
47162;DHT22;32921;53.256;8.198;2024-02-26T03:31:08;1.60;99.90
47162;DHT22;32921;53.256;8.198;2024-02-26T03:33:34;1.60;99.90
47162;DHT22;32921;53.256;8.198;2024-02-26T03:36:00;1.50;99.90
47162;DHT22;32921;53.256;8.198;2024-02-26T03:38:25;1.40;99.90
47162;DHT22;32921;53.256;8.198;2024-02-26T03:40:51;1.40;99.90
47162;DHT22;32921;53.256;8.198;2024-02-26T03:43:17;1.50;99.90
47162;DHT22;32921;53.256;8.198;2024-02-26T03:45:43;1.60;99.90
47162;DHT22;32921;53.256;8.198;2024-02-26T03:48:08;1.60;99.90
47162;DHT22;32921;53.256;8.198;2024-02-26T03:50:34;1.50;99.90
47162;DHT22;32921;53.256;8.198;2024-02-26T03:53:00;1.50;99.90
47162;DHT22;32921;53.256;8.198;2024-02-26T03:55:25;1.70;99.90
47162;DHT22;32921;53.256;8.198;2024-02-26T03:57:52;1.80;99.90
47162;DHT22;32921;53.256;8.198;2024-02-26T04:00:17;1.70;99.90
47162;DHT22;32921;53.256;8.198;2024-02-26T04:02:43;1.60;99.90
47162;DHT22;32921;53.256;8.198;2024-02-26T04:05:10;1.40;99.90
47162;DHT22;32921;53.256;8.198;2024-02-26T04:07:36;1.40;99.90
47162;DHT22;32921;53.256;8.198;2024-02-26T04:10:01;1.50;99.90
47162;DHT22;32921;53.256;8.198;2024-02-26T04:12:30;1.50;99.90
47162;DHT22;32921;53.256;8.198;2024-02-26T04:14:56;1.40;99.90
47162;DHT22;32921;53.256;8.198;2024-02-26T04:17:21;1.40;99.90
47162;DHT22;32921;53.256;8.198;2024-02-26T04:19:47;1.20;99.90
47162;DHT22;32921;53.256;8.198;2024-02-26T04:22:13;1.20;99.90
47162;DHT22;32921;53.256;8.198;2024-02-26T04:24:38;1.10;99.90
47162;DHT22;32921;53.256;8.198;2024-02-26T04:27:04;1.10;99.90
47162;DHT22;32921;53.256;8.198;2024-02-26T04:29:30;1.10;99.90
47162;DHT22;32921;53.256;8.198;2024-02-26T04:31:55;1.30;99.90
47162;DHT22;32921;53.256;8.198;2024-02-26T04:34:21;1.20;99.90
47162;DHT22;32921;53.256;8.198;2024-02-26T04:36:46;1.10;99.90
47162;DHT22;32921;53.256;8.198;2024-02-26T04:39:13;1.30;99.90
47162;DHT22;32921;53.256;8.198;2024-02-26T04:41:39;1.30;99.90
47162;DHT22;32921;53.256;8.198;2024-02-26T04:44:05;1.40;99.90
47162;DHT22;32921;53.256;8.198;2024-02-26T04:46:30;1.40;99.90
47162;DHT22;32921;53.256;8.198;2024-02-26T04:48:56;1.20;99.90
47162;DHT22;32921;53.256;8.198;2024-02-26T04:51:21;1.30;99.90
47162;DHT22;32921;53.256;8.198;2024-02-26T04:53:47;1.40;99.90
47162;DHT22;32921;53.256;8.198;2024-02-26T04:56:12;1.30;99.90
47162;DHT22;32921;53.256;8.198;2024-02-26T04:58:38;1.40;99.90
47162;DHT22;32921;53.256;8.198;2024-02-26T05:01:05;1.40;99.90
47162;DHT22;32921;53.256;8.198;2024-02-26T05:03:30;1.40;99.90
47162;DHT22;32921;53.256;8.198;2024-02-26T05:05:56;1.40;99.90
47162;DHT22;32921;53.256;8.198;2024-02-26T05:08:23;1.30;99.90
47162;DHT22;32921;53.256;8.198;2024-02-26T05:10:49;1.40;99.90
47162;DHT22;32921;53.256;8.198;2024-02-26T05:13:14;1.40;99.90
47162;DHT22;32921;53.256;8.198;2024-02-26T05:15:43;1.40;99.90
47162;DHT22;32921;53.256;8.198;2024-02-26T05:18:09;1.40;99.90
47162;DHT22;32921;53.256;8.198;2024-02-26T05:20:35;1.40;99.90
47162;DHT22;32921;53.256;8.198;2024-02-26T05:23:01;1.50;99.90
47162;DHT22;32921;53.256;8.198;2024-02-26T05:25:27;1.40;99.90
47162;DHT22;32921;53.256;8.198;2024-02-26T05:27:52;1.50;99.90
47162;DHT22;32921;53.256;8.198;2024-02-26T05:30:18;1.50;99.90
47162;DHT22;32921;53.256;8.198;2024-02-26T05:32:44;1.40;99.90
47162;DHT22;32921;53.256;8.198;2024-02-26T05:35:09;1.40;99.90
47162;DHT22;32921;53.256;8.198;2024-02-26T05:37:35;1.50;99.90
47162;DHT22;32921;53.256;8.198;2024-02-26T05:40:01;1.40;99.90
47162;DHT22;32921;53.256;8.198;2024-02-26T05:42:29;1.40;99.90
47162;DHT22;32921;53.256;8.198;2024-02-26T05:44:55;1.50;99.90
47162;DHT22;32921;53.256;8.198;2024-02-26T05:47:21;1.50;99.90
47162;DHT22;32921;53.256;8.198;2024-02-26T05:49:46;1.50;99.90
47162;DHT22;32921;53.256;8.198;2024-02-26T05:52:12;1.50;99.90
47162;DHT22;32921;53.256;8.198;2024-02-26T05:54:37;1.50;99.90
47162;DHT22;32921;53.256;8.198;2024-02-26T05:57:05;1.40;99.90
47162;DHT22;32921;53.256;8.198;2024-02-26T05:59:31;1.40;99.90
47162;DHT22;32921;53.256;8.198;2024-02-26T06:01:57;1.40;99.90
47162;DHT22;32921;53.256;8.198;2024-02-26T06:04:22;1.40;99.90
47162;DHT22;32921;53.256;8.198;2024-02-26T06:06:48;1.50;99.90
47162;DHT22;32921;53.256;8.198;2024-02-26T06:09:14;1.40;99.90
47162;DHT22;32921;53.256;8.198;2024-02-26T06:11:40;1.50;99.90
47162;DHT22;32921;53.256;8.198;2024-02-26T06:14:06;1.50;99.90
47162;DHT22;32921;53.256;8.198;2024-02-26T06:16:31;1.50;99.90
47162;DHT22;32921;53.256;8.198;2024-02-26T06:18:57;1.50;99.90
47162;DHT22;32921;53.256;8.198;2024-02-26T06:21:23;1.40;99.90
47162;DHT22;32921;53.256;8.198;2024-02-26T06:23:49;1.50;99.90
47162;DHT22;32921;53.256;8.198;2024-02-26T06:26:16;1.60;99.90
47162;DHT22;32921;53.256;8.198;2024-02-26T06:28:41;1.60;99.90
47162;DHT22;32921;53.256;8.198;2024-02-26T06:31:07;1.60;99.90
47162;DHT22;32921;53.256;8.198;2024-02-26T06:33:32;1.60;99.90
47162;DHT22;32921;53.256;8.198;2024-02-26T06:35:58;1.60;99.90
47162;DHT22;32921;53.256;8.198;2024-02-26T06:38:24;1.50;99.90
47162;DHT22;32921;53.256;8.198;2024-02-26T06:40:50;1.50;99.90
47162;DHT22;32921;53.256;8.198;2024-02-26T06:43:15;1.60;99.90
47162;DHT22;32921;53.256;8.198;2024-02-26T06:45:41;1.60;99.90
47162;DHT22;32921;53.256;8.198;2024-02-26T06:48:07;1.70;99.90
47162;DHT22;32921;53.256;8.198;2024-02-26T06:50:32;1.70;99.90
47162;DHT22;32921;53.256;8.198;2024-02-26T06:52:58;1.80;99.90
47162;DHT22;32921;53.256;8.198;2024-02-26T06:55:23;1.80;99.90
47162;DHT22;32921;53.256;8.198;2024-02-26T06:57:49;1.80;99.90
47162;DHT22;32921;53.256;8.198;2024-02-26T07:00:15;1.80;99.90
47162;DHT22;32921;53.256;8.198;2024-02-26T07:02:42;1.90;99.90
47162;DHT22;32921;53.256;8.198;2024-02-26T07:05:08;2.00;99.90
47162;DHT22;32921;53.256;8.198;2024-02-26T07:07:34;1.90;99.90
47162;DHT22;32921;53.256;8.198;2024-02-26T07:10:00;2.00;99.90
47162;DHT22;32921;53.256;8.198;2024-02-26T07:12:31;2.00;99.90
47162;DHT22;32921;53.256;8.198;2024-02-26T07:14:57;2.00;99.90
47162;DHT22;32921;53.256;8.198;2024-02-26T07:17:23;2.10;99.90
47162;DHT22;32921;53.256;8.198;2024-02-26T07:19:49;2.10;99.90
47162;DHT22;32921;53.256;8.198;2024-02-26T07:22:15;2.20;99.90
47162;DHT22;32921;53.256;8.198;2024-02-26T07:24:41;2.20;99.90
47162;DHT22;32921;53.256;8.198;2024-02-26T07:27:06;2.20;99.90
47162;DHT22;32921;53.256;8.198;2024-02-26T07:29:32;2.20;99.90
47162;DHT22;32921;53.256;8.198;2024-02-26T07:31:58;2.20;99.90
47162;DHT22;32921;53.256;8.198;2024-02-26T07:34:24;2.30;99.90
47162;DHT22;32921;53.256;8.198;2024-02-26T07:36:57;2.30;99.90
47162;DHT22;32921;53.256;8.198;2024-02-26T07:39:23;2.30;99.90
47162;DHT22;32921;53.256;8.198;2024-02-26T07:41:48;2.40;99.90
47162;DHT22;32921;53.256;8.198;2024-02-26T07:44:17;2.40;99.90
47162;DHT22;32921;53.256;8.198;2024-02-26T07:46:42;2.50;99.90
47162;DHT22;32921;53.256;8.198;2024-02-26T07:49:08;2.50;99.90
47162;DHT22;32921;53.256;8.198;2024-02-26T07:51:34;2.60;99.90
47162;DHT22;32921;53.256;8.198;2024-02-26T07:54:00;2.60;99.90
47162;DHT22;32921;53.256;8.198;2024-02-26T07:56:26;2.70;99.90
47162;DHT22;32921;53.256;8.198;2024-02-26T07:58:52;2.70;99.90
47162;DHT22;32921;53.256;8.198;2024-02-26T08:01:17;2.70;99.90
47162;DHT22;32921;53.256;8.198;2024-02-26T08:03:43;2.80;99.90
47162;DHT22;32921;53.256;8.198;2024-02-26T08:06:09;2.80;99.90
47162;DHT22;32921;53.256;8.198;2024-02-26T08:08:34;2.80;99.90
47162;DHT22;32921;53.256;8.198;2024-02-26T08:11:00;2.90;99.90
47162;DHT22;32921;53.256;8.198;2024-02-26T08:13:26;2.90;99.90
47162;DHT22;32921;53.256;8.198;2024-02-26T08:15:51;3.00;99.90
47162;DHT22;32921;53.256;8.198;2024-02-26T08:18:17;3.00;99.90
47162;DHT22;32921;53.256;8.198;2024-02-26T08:20:43;3.10;99.90
47162;DHT22;32921;53.256;8.198;2024-02-26T08:23:08;3.10;99.90
47162;DHT22;32921;53.256;8.198;2024-02-26T08:25:34;3.10;99.90
47162;DHT22;32921;53.256;8.198;2024-02-26T08:28:00;3.20;99.90
47162;DHT22;32921;53.256;8.198;2024-02-26T08:30:26;3.30;99.90
47162;DHT22;32921;53.256;8.198;2024-02-26T08:32:51;3.30;99.90
47162;DHT22;32921;53.256;8.198;2024-02-26T08:35:18;3.40;99.90
47162;DHT22;32921;53.256;8.198;2024-02-26T08:37:44;3.40;99.90
47162;DHT22;32921;53.256;8.198;2024-02-26T08:40:11;3.40;99.90
47162;DHT22;32921;53.256;8.198;2024-02-26T08:42:37;3.50;99.90
47162;DHT22;32921;53.256;8.198;2024-02-26T08:45:02;3.50;99.90
47162;DHT22;32921;53.256;8.198;2024-02-26T08:47:28;3.50;99.90
47162;DHT22;32921;53.256;8.198;2024-02-26T08:49:54;3.60;99.90
47162;DHT22;32921;53.256;8.198;2024-02-26T08:52:20;3.60;99.90
47162;DHT22;32921;53.256;8.198;2024-02-26T08:54:47;3.70;99.90
47162;DHT22;32921;53.256;8.198;2024-02-26T08:57:13;3.70;99.90
47162;DHT22;32921;53.256;8.198;2024-02-26T08:59:38;3.70;99.90
47162;DHT22;32921;53.256;8.198;2024-02-26T09:02:04;3.80;99.90
47162;DHT22;32921;53.256;8.198;2024-02-26T09:04:29;3.80;99.90
47162;DHT22;32921;53.256;8.198;2024-02-26T09:06:55;3.80;99.90
47162;DHT22;32921;53.256;8.198;2024-02-26T09:09:20;3.90;99.90
47162;DHT22;32921;53.256;8.198;2024-02-26T09:11:48;3.90;99.90
47162;DHT22;32921;53.256;8.198;2024-02-26T09:14:17;3.90;99.90
47162;DHT22;32921;53.256;8.198;2024-02-26T09:16:42;4.00;99.90
47162;DHT22;32921;53.256;8.198;2024-02-26T09:19:08;4.10;99.90
47162;DHT22;32921;53.256;8.198;2024-02-26T09:21:33;4.10;99.90
47162;DHT22;32921;53.256;8.198;2024-02-26T09:23:59;4.20;99.90
47162;DHT22;32921;53.256;8.198;2024-02-26T09:26:24;4.20;99.90
47162;DHT22;32921;53.256;8.198;2024-02-26T09:28:50;4.20;99.90
47162;DHT22;32921;53.256;8.198;2024-02-26T09:31:18;4.30;99.90
47162;DHT22;32921;53.256;8.198;2024-02-26T09:33:43;4.40;99.90
47162;DHT22;32921;53.256;8.198;2024-02-26T09:36:09;4.40;99.90
47162;DHT22;32921;53.256;8.198;2024-02-26T09:38:36;4.60;99.90
47162;DHT22;32921;53.256;8.198;2024-02-26T09:41:04;4.60;99.90
47162;DHT22;32921;53.256;8.198;2024-02-26T09:43:35;4.60;99.90
47162;DHT22;32921;53.256;8.198;2024-02-26T09:46:05;4.80;99.90
47162;DHT22;32921;53.256;8.198;2024-02-26T09:48:32;4.80;99.90
47162;DHT22;32921;53.256;8.198;2024-02-26T09:51:01;4.90;99.90
47162;DHT22;32921;53.256;8.198;2024-02-26T09:53:29;5.00;99.90
47162;DHT22;32921;53.256;8.198;2024-02-26T09:55:57;5.20;99.90
47162;DHT22;32921;53.256;8.198;2024-02-26T09:58:23;5.20;99.90
47162;DHT22;32921;53.256;8.198;2024-02-26T10:00:53;5.40;99.90
47162;DHT22;32921;53.256;8.198;2024-02-26T10:03:25;5.40;99.90
47162;DHT22;32921;53.256;8.198;2024-02-26T10:05:53;5.50;99.90
47162;DHT22;32921;53.256;8.198;2024-02-26T10:08:21;5.60;99.90
47162;DHT22;32921;53.256;8.198;2024-02-26T10:10:47;5.70;99.90
47162;DHT22;32921;53.256;8.198;2024-02-26T10:13:14;5.70;99.90
47162;DHT22;32921;53.256;8.198;2024-02-26T10:15:40;5.60;99.90
47162;DHT22;32921;53.256;8.198;2024-02-26T10:18:06;5.80;99.90
47162;DHT22;32921;53.256;8.198;2024-02-26T10:20:32;5.90;99.90
47162;DHT22;32921;53.256;8.198;2024-02-26T10:23:02;6.00;99.90
47162;DHT22;32921;53.256;8.198;2024-02-26T10:25:28;6.10;99.90
47162;DHT22;32921;53.256;8.198;2024-02-26T10:27:53;6.10;99.90
47162;DHT22;32921;53.256;8.198;2024-02-26T10:30:20;6.10;99.90
47162;DHT22;32921;53.256;8.198;2024-02-26T10:32:47;6.00;99.90
47162;DHT22;32921;53.256;8.198;2024-02-26T10:35:14;6.30;99.90
47162;DHT22;32921;53.256;8.198;2024-02-26T10:37:41;6.40;99.90
47162;DHT22;32921;53.256;8.198;2024-02-26T10:40:16;6.40;99.90
47162;DHT22;32921;53.256;8.198;2024-02-26T10:42:43;6.30;99.90
47162;DHT22;32921;53.256;8.198;2024-02-26T10:45:10;6.40;99.90
47162;DHT22;32921;53.256;8.198;2024-02-26T10:47:36;6.30;99.90
47162;DHT22;32921;53.256;8.198;2024-02-26T10:50:03;6.50;99.90
47162;DHT22;32921;53.256;8.198;2024-02-26T10:52:34;6.70;99.90
47162;DHT22;32921;53.256;8.198;2024-02-26T10:55:02;6.90;99.90
47162;DHT22;32921;53.256;8.198;2024-02-26T10:57:41;6.70;99.90
47162;DHT22;32921;53.256;8.198;2024-02-26T11:00:10;6.80;99.90
47162;DHT22;32921;53.256;8.198;2024-02-26T11:02:40;6.50;99.90
47162;DHT22;32921;53.256;8.198;2024-02-26T11:05:07;6.60;99.90
47162;DHT22;32921;53.256;8.198;2024-02-26T11:07:36;6.70;99.90
47162;DHT22;32921;53.256;8.198;2024-02-26T11:10:04;6.90;99.90
47162;DHT22;32921;53.256;8.198;2024-02-26T11:12:32;6.80;99.90
47162;DHT22;32921;53.256;8.198;2024-02-26T11:14:58;6.90;99.90
47162;DHT22;32921;53.256;8.198;2024-02-26T11:17:26;6.80;99.90
47162;DHT22;32921;53.256;8.198;2024-02-26T11:19:55;6.90;99.90
47162;DHT22;32921;53.256;8.198;2024-02-26T11:22:26;6.80;99.90
47162;DHT22;32921;53.256;8.198;2024-02-26T11:24:53;6.60;99.90
47162;DHT22;32921;53.256;8.198;2024-02-26T11:27:26;6.90;99.90
47162;DHT22;32921;53.256;8.198;2024-02-26T11:29:56;7.00;99.90
47162;DHT22;32921;53.256;8.198;2024-02-26T11:32:26;7.20;99.90
47162;DHT22;32921;53.256;8.198;2024-02-26T11:34:53;7.20;99.90
47162;DHT22;32921;53.256;8.198;2024-02-26T11:37:19;7.20;99.90
47162;DHT22;32921;53.256;8.198;2024-02-26T11:39:45;7.10;99.90
47162;DHT22;32921;53.256;8.198;2024-02-26T11:42:14;7.00;99.90
47162;DHT22;32921;53.256;8.198;2024-02-26T11:44:40;7.00;99.90
47162;DHT22;32921;53.256;8.198;2024-02-26T11:47:11;7.10;99.90
47162;DHT22;32921;53.256;8.198;2024-02-26T11:49:37;7.40;99.90
47162;DHT22;32921;53.256;8.198;2024-02-26T11:52:07;7.40;99.90
47162;DHT22;32921;53.256;8.198;2024-02-26T11:54:53;7.30;99.90
47162;DHT22;32921;53.256;8.198;2024-02-26T11:57:29;7.40;99.90
47162;DHT22;32921;53.256;8.198;2024-02-26T12:02:50;6.80;99.90
47162;DHT22;32921;53.256;8.198;2024-02-26T12:05:31;7.00;99.90
47162;DHT22;32921;53.256;8.198;2024-02-26T12:08:03;7.30;99.90
47162;DHT22;32921;53.256;8.198;2024-02-26T12:10:34;7.30;99.90
47162;DHT22;32921;53.256;8.198;2024-02-26T12:13:16;7.30;99.90
47162;DHT22;32921;53.256;8.198;2024-02-26T12:15:44;7.20;99.90
47162;DHT22;32921;53.256;8.198;2024-02-26T12:18:15;7.20;99.90
47162;DHT22;32921;53.256;8.198;2024-02-26T12:20:42;7.20;99.90
47162;DHT22;32921;53.256;8.198;2024-02-26T12:23:14;7.00;99.90
47162;DHT22;32921;53.256;8.198;2024-02-26T12:25:40;7.10;99.90
47162;DHT22;32921;53.256;8.198;2024-02-26T12:28:07;7.20;99.90
47162;DHT22;32921;53.256;8.198;2024-02-26T12:30:33;7.30;99.90
47162;DHT22;32921;53.256;8.198;2024-02-26T12:32:59;7.20;99.90
47162;DHT22;32921;53.256;8.198;2024-02-26T12:35:28;7.20;99.90
47162;DHT22;32921;53.256;8.198;2024-02-26T12:37:56;7.50;99.90
47162;DHT22;32921;53.256;8.198;2024-02-26T12:40:22;7.60;99.90
47162;DHT22;32921;53.256;8.198;2024-02-26T12:42:48;7.60;99.90
47162;DHT22;32921;53.256;8.198;2024-02-26T12:45:15;7.90;99.90
47162;DHT22;32921;53.256;8.198;2024-02-26T12:47:45;8.20;99.90
47162;DHT22;32921;53.256;8.198;2024-02-26T12:50:11;8.20;99.90
47162;DHT22;32921;53.256;8.198;2024-02-26T12:52:43;8.50;99.90
47162;DHT22;32921;53.256;8.198;2024-02-26T12:55:09;8.50;99.90
47162;DHT22;32921;53.256;8.198;2024-02-26T12:57:37;8.50;99.90
47162;DHT22;32921;53.256;8.198;2024-02-26T13:00:07;8.50;99.90
47162;DHT22;32921;53.256;8.198;2024-02-26T13:02:36;8.30;99.90
47162;DHT22;32921;53.256;8.198;2024-02-26T13:05:04;8.00;99.90
47162;DHT22;32921;53.256;8.198;2024-02-26T13:07:31;8.20;99.90
47162;DHT22;32921;53.256;8.198;2024-02-26T13:09:56;7.90;99.90
47162;DHT22;32921;53.256;8.198;2024-02-26T13:12:22;7.50;99.90
47162;DHT22;32921;53.256;8.198;2024-02-26T13:15:02;7.50;99.90
47162;DHT22;32921;53.256;8.198;2024-02-26T13:17:31;7.40;99.90
47162;DHT22;32921;53.256;8.198;2024-02-26T13:19:57;7.40;99.90
47162;DHT22;32921;53.256;8.198;2024-02-26T13:22:22;7.50;99.90
47162;DHT22;32921;53.256;8.198;2024-02-26T13:24:59;7.50;99.90
47162;DHT22;32921;53.256;8.198;2024-02-26T13:27:25;7.40;99.90
47162;DHT22;32921;53.256;8.198;2024-02-26T13:30:12;7.20;99.90
47162;DHT22;32921;53.256;8.198;2024-02-26T13:32:40;7.20;99.90
47162;DHT22;32921;53.256;8.198;2024-02-26T13:35:11;7.20;99.90
47162;DHT22;32921;53.256;8.198;2024-02-26T13:37:37;7.20;99.90
47162;DHT22;32921;53.256;8.198;2024-02-26T13:40:08;7.10;99.90
47162;DHT22;32921;53.256;8.198;2024-02-26T13:42:35;7.00;99.90
47162;DHT22;32921;53.256;8.198;2024-02-26T13:45:01;6.80;99.90
47162;DHT22;32921;53.256;8.198;2024-02-26T13:47:27;6.80;99.90
47162;DHT22;32921;53.256;8.198;2024-02-26T13:49:53;6.70;99.90
47162;DHT22;32921;53.256;8.198;2024-02-26T13:52:18;6.60;99.90
47162;DHT22;32921;53.256;8.198;2024-02-26T13:54:46;6.60;99.90
47162;DHT22;32921;53.256;8.198;2024-02-26T13:57:11;6.70;99.90
47162;DHT22;32921;53.256;8.198;2024-02-26T13:59:37;6.60;99.90
47162;DHT22;32921;53.256;8.198;2024-02-26T14:02:03;6.70;99.90
47162;DHT22;32921;53.256;8.198;2024-02-26T14:04:29;6.80;99.90
47162;DHT22;32921;53.256;8.198;2024-02-26T14:06:55;6.70;99.90
47162;DHT22;32921;53.256;8.198;2024-02-26T14:09:20;6.70;99.90
47162;DHT22;32921;53.256;8.198;2024-02-26T14:11:46;6.80;99.90
47162;DHT22;32921;53.256;8.198;2024-02-26T14:14:11;6.90;99.90
47162;DHT22;32921;53.256;8.198;2024-02-26T14:16:37;7.00;99.90
47162;DHT22;32921;53.256;8.198;2024-02-26T14:19:03;7.00;99.90
47162;DHT22;32921;53.256;8.198;2024-02-26T14:21:29;6.80;99.90
47162;DHT22;32921;53.256;8.198;2024-02-26T14:23:57;6.80;99.90
47162;DHT22;32921;53.256;8.198;2024-02-26T14:26:23;6.80;99.90
47162;DHT22;32921;53.256;8.198;2024-02-26T14:28:49;6.80;99.90
47162;DHT22;32921;53.256;8.198;2024-02-26T14:31:17;6.90;99.90
47162;DHT22;32921;53.256;8.198;2024-02-26T14:33:43;6.80;99.90
47162;DHT22;32921;53.256;8.198;2024-02-26T14:36:09;6.90;99.90
47162;DHT22;32921;53.256;8.198;2024-02-26T14:38:35;7.00;99.90
47162;DHT22;32921;53.256;8.198;2024-02-26T14:41:01;6.80;99.90
47162;DHT22;32921;53.256;8.198;2024-02-26T14:43:28;6.80;99.90
47162;DHT22;32921;53.256;8.198;2024-02-26T14:45:53;6.80;99.90
47162;DHT22;32921;53.256;8.198;2024-02-26T14:48:19;6.80;99.90
47162;DHT22;32921;53.256;8.198;2024-02-26T14:50:44;6.80;99.90
47162;DHT22;32921;53.256;8.198;2024-02-26T14:53:10;6.90;99.90
47162;DHT22;32921;53.256;8.198;2024-02-26T14:55:35;6.70;99.90
47162;DHT22;32921;53.256;8.198;2024-02-26T14:58:01;6.60;99.90
47162;DHT22;32921;53.256;8.198;2024-02-26T15:00:27;6.50;99.90
47162;DHT22;32921;53.256;8.198;2024-02-26T15:02:52;6.60;99.90
47162;DHT22;32921;53.256;8.198;2024-02-26T15:05:20;6.50;99.90
47162;DHT22;32921;53.256;8.198;2024-02-26T15:07:45;6.50;99.90
47162;DHT22;32921;53.256;8.198;2024-02-26T15:10:11;6.40;99.90
47162;DHT22;32921;53.256;8.198;2024-02-26T15:12:38;6.40;99.90
47162;DHT22;32921;53.256;8.198;2024-02-26T15:15:04;6.30;99.90
47162;DHT22;32921;53.256;8.198;2024-02-26T15:17:29;6.30;99.90
47162;DHT22;32921;53.256;8.198;2024-02-26T15:19:57;6.20;99.90
47162;DHT22;32921;53.256;8.198;2024-02-26T15:22:24;6.10;99.90
47162;DHT22;32921;53.256;8.198;2024-02-26T15:24:50;6.10;99.90
47162;DHT22;32921;53.256;8.198;2024-02-26T15:27:15;6.10;99.90
47162;DHT22;32921;53.256;8.198;2024-02-26T15:29:42;6.00;99.90
47162;DHT22;32921;53.256;8.198;2024-02-26T15:32:08;5.90;99.90
47162;DHT22;32921;53.256;8.198;2024-02-26T15:34:33;5.90;99.90
47162;DHT22;32921;53.256;8.198;2024-02-26T15:36:59;5.90;99.90
47162;DHT22;32921;53.256;8.198;2024-02-26T15:39:31;5.80;99.90
47162;DHT22;32921;53.256;8.198;2024-02-26T15:41:56;5.80;99.90
47162;DHT22;32921;53.256;8.198;2024-02-26T15:44:22;5.70;99.90